Sumner, Maine
Current Conditions -  °F | °C
As of 11:55 PM on Saturday 22 Nov 2014 (Local Time) from KLEW Reporting Station
Clear Clear  
Wind Chill: 28°   Ceiling: Unl
Heat Index: 28°   Visibility: 10mi
Dew Point: 12°   Wind: 3mph
Humidity: 51%   Direction: 200°SSW
Pressure: 29.93"   Gusts: NA
Location:  44.39°N, 70.43°W
Report Text: KLEW 230455Z AUTO 20003KT 10SM CLR M02/M11 A2993 RMK AO1
Loading
Personal Weather Stations






























Interactive Weather Map New forecast layout! Learn more

10-Day Weather Forecast

Advertisements
Track Severe Weather on mobile